createdAt,value
2018-12-27T00:01:23.984Z,-0.01
2018-12-27T00:03:55.407Z,0.04
2018-12-27T00:06:35.731Z,-0.06
2018-12-27T00:09:08.237Z,-0.02
2018-12-27T00:11:39.940Z,0.02
2018-12-27T00:14:18.283Z,0.05
2018-12-27T00:16:49.689Z,0.06
2018-12-27T00:19:21.661Z,0.06
2018-12-27T00:21:53.251Z,0.04
2018-12-27T00:24:31.322Z,0.06
2018-12-27T00:27:02.603Z,0.12
2018-12-27T00:29:34.327Z,0.07
2018-12-27T00:32:16.871Z,-0.01
2018-12-27T00:34:49.064Z,-0.06
2018-12-27T00:37:23.131Z,-0.02
2018-12-27T00:40:04.305Z,0.00
2018-12-27T00:42:36.800Z,0.02
2018-12-27T00:45:08.215Z,0.06
2018-12-27T00:47:40.031Z,0.11
2018-12-27T00:50:12.043Z,0.09
2018-12-27T00:52:44.420Z,0.07
2018-12-27T00:55:17.443Z,0.09
2018-12-27T00:57:49.717Z,-0.07
2018-12-27T01:00:35.959Z,-0.11
2018-12-27T01:03:11.340Z,-0.17
2018-12-27T01:05:58.031Z,-0.02
2018-12-27T01:08:30.248Z,0.12
2018-12-27T01:11:02.222Z,-0.10
2018-12-27T01:13:34.139Z,-0.15
2018-12-27T01:16:08.821Z,-0.17
2018-12-27T01:18:41.628Z,-0.20
2018-12-27T01:21:15.231Z,-0.20
2018-12-27T01:23:47.431Z,-0.06
2018-12-27T01:26:25.595Z,-0.12
2018-12-27T01:28:57.654Z,-0.18
2018-12-27T01:31:30.908Z,-0.22
2018-12-27T01:34:02.778Z,-0.26
2018-12-27T01:36:34.889Z,-0.25
2018-12-27T01:39:07.668Z,-0.29
2018-12-27T01:41:39.923Z,-0.27
2018-12-27T01:44:12.297Z,-0.17
2018-12-27T01:46:44.085Z,-0.26
2018-12-27T01:49:16.222Z,-0.26
2018-12-27T01:51:48.395Z,-0.31
2018-12-27T01:54:20.469Z,-0.29
2018-12-27T01:56:52.659Z,-0.32
2018-12-27T01:59:24.894Z,-0.26
2018-12-27T02:01:57.067Z,-0.31
2018-12-27T02:04:28.928Z,-0.24
2018-12-27T02:07:01.090Z,-0.19
2018-12-27T02:09:32.958Z,-0.24
2018-12-27T02:12:05.021Z,-0.21
2018-12-27T02:14:37.227Z,-0.16
2018-12-27T02:17:09.388Z,-0.18
2018-12-27T02:19:41.826Z,-0.12
2018-12-27T02:22:13.651Z,-0.19
2018-12-27T02:24:45.461Z,-0.29
2018-12-27T02:27:17.598Z,-0.27
2018-12-27T02:29:49.585Z,-0.24
2018-12-27T02:32:21.782Z,-0.26
2018-12-27T02:34:59.747Z,-0.25
2018-12-27T02:37:31.890Z,-0.28
2018-12-27T02:40:03.674Z,-0.27
2018-12-27T02:42:35.576Z,-0.30
2018-12-27T02:45:07.106Z,-0.23
2018-12-27T02:47:39.050Z,-0.24
2018-12-27T02:50:11.198Z,-0.26
2018-12-27T02:52:44.317Z,-0.26
2018-12-27T02:55:16.580Z,-0.29
2018-12-27T02:57:48.852Z,-0.33
2018-12-27T03:00:21.028Z,-0.22
2018-12-27T03:02:53.047Z,-0.11
2018-12-27T03:05:25.386Z,-0.17
2018-12-27T03:07:58.290Z,-0.11
2018-12-27T03:10:30.401Z,-0.09
2018-12-27T03:13:02.738Z,-0.23
2018-12-27T03:15:34.289Z,-0.10
2018-12-27T03:18:06.367Z,-0.18
2018-12-27T03:20:38.307Z,-0.16
2018-12-27T03:23:14.277Z,-0.16
2018-12-27T03:25:46.764Z,-0.14
2018-12-27T03:28:18.962Z,-0.18
2018-12-27T03:30:50.582Z,-0.16
2018-12-27T03:33:22.225Z,-0.12
2018-12-27T03:36:11.991Z,-0.15
2018-12-27T03:38:44.122Z,-0.10
2018-12-27T03:41:16.278Z,-0.07
2018-12-27T03:43:48.242Z,-0.15
2018-12-27T03:46:20.217Z,-0.17
2018-12-27T03:48:52.347Z,-0.18
2018-12-27T03:51:24.159Z,-0.15
2018-12-27T03:53:56.123Z,-0.19
2018-12-27T03:56:40.133Z,-0.14
2018-12-27T03:59:11.562Z,-0.07
2018-12-27T04:01:43.796Z,-0.02
2018-12-27T04:04:16.974Z,-0.05
2018-12-27T04:06:48.531Z,-0.18
2018-12-27T04:09:20.461Z,-0.21
2018-12-27T04:12:08.014Z,-0.11
2018-12-27T04:14:39.899Z,-0.02
2018-12-27T04:17:11.635Z,-0.08
2018-12-27T04:19:43.355Z,-0.02
2018-12-27T04:22:15.263Z,-0.09
2018-12-27T04:24:47.110Z,-0.06
2018-12-27T04:28:34.974Z,-0.20
2018-12-27T04:31:06.860Z,-0.26
2018-12-27T04:33:39.492Z,-0.27
2018-12-27T04:36:11.993Z,-0.27
2018-12-27T04:38:44.247Z,0.18
2018-12-27T04:41:15.915Z,0.25
2018-12-27T04:43:48.058Z,0.04
2018-12-27T04:46:19.917Z,-0.12
2018-12-27T04:48:51.768Z,0.07
2018-12-27T04:51:23.677Z,-0.01
2018-12-27T04:53:55.156Z,-0.02
2018-12-27T04:56:26.507Z,-0.12
2018-12-27T04:58:58.055Z,0.36
2018-12-27T05:01:29.764Z,0.32
2018-12-27T05:04:01.627Z,0.33
2018-12-27T05:06:33.379Z,0.13
2018-12-27T05:09:06.788Z,0.01
2018-12-27T05:12:05.810Z,-0.18
2018-12-27T05:14:37.381Z,-0.31
2018-12-27T05:17:09.268Z,-0.26
2018-12-27T05:19:40.808Z,-0.41
2018-12-27T05:22:12.397Z,-0.39
2018-12-27T05:24:44.236Z,-0.23
2018-12-27T05:27:16.172Z,-0.22
2018-12-27T05:29:47.744Z,-0.34
2018-12-27T05:32:19.712Z,-0.45
2018-12-27T05:34:51.504Z,-0.44
2018-12-27T05:37:22.802Z,-0.27
2018-12-27T05:39:54.649Z,-0.32
2018-12-27T05:42:26.310Z,-0.34
2018-12-27T05:44:58.369Z,-0.36
2018-12-27T05:47:30.027Z,-0.29
2018-12-27T05:50:00.737Z,-0.35
2018-12-27T05:52:32.126Z,-0.39
2018-12-27T05:55:03.401Z,-0.32
2018-12-27T05:57:34.698Z,-0.33
2018-12-27T06:00:07.642Z,-0.34
2018-12-27T06:02:39.507Z,-0.34
2018-12-27T06:05:10.998Z,-0.36
2018-12-27T06:07:43.018Z,-0.09
2018-12-27T06:10:14.875Z,-0.23
2018-12-27T06:12:46.700Z,-0.23
2018-12-27T06:15:18.026Z,-0.21
2018-12-27T06:17:49.894Z,-0.18
2018-12-27T06:20:21.763Z,-0.19
2018-12-27T06:22:53.610Z,-0.18
2018-12-27T06:25:29.310Z,-0.15
2018-12-27T06:28:00.877Z,-0.01
2018-12-27T06:30:43.096Z,0.00
2018-12-27T06:33:14.267Z,-0.10
2018-12-27T06:35:45.886Z,-0.15
2018-12-27T06:38:17.659Z,-0.12
2018-12-27T06:40:49.281Z,-0.21
2018-12-27T06:43:27.095Z,-0.20
2018-12-27T06:45:58.943Z,-0.23
2018-12-27T06:48:34.627Z,-0.21
2018-12-27T06:51:08.032Z,-0.12
2018-12-27T06:53:39.942Z,-0.15
2018-12-27T06:56:11.766Z,-0.12
2018-12-27T06:58:56.279Z,0.00
2018-12-27T07:01:28.096Z,0.18
2018-12-27T07:04:21.206Z,0.12
2018-12-27T07:06:52.677Z,-0.02
2018-12-27T07:09:24.198Z,-0.01
2018-12-27T07:12:12.672Z,0.01
2018-12-27T07:14:44.260Z,0.22
2018-12-27T07:17:15.601Z,0.14
2018-12-27T07:19:46.960Z,0.07
2018-12-27T07:22:18.841Z,0.14
2018-12-27T07:24:50.203Z,0.17
2018-12-27T07:27:21.615Z,0.18
2018-12-27T07:30:06.051Z,0.10
2018-12-27T07:32:37.508Z,0.03
2018-12-27T07:35:09.872Z,0.08
2018-12-27T07:37:41.437Z,0.02
2018-12-27T07:40:12.973Z,-0.06
2018-12-27T07:42:44.403Z,0.02
2018-12-27T07:45:15.664Z,0.40
2018-12-27T07:47:47.487Z,0.68
2018-12-27T07:50:19.172Z,0.51
2018-12-27T07:52:50.943Z,0.27
2018-12-27T07:55:28.343Z,0.36
2018-12-27T07:58:00.206Z,0.49
2018-12-27T08:00:31.312Z,0.55
2018-12-27T08:03:03.038Z,0.38
2018-12-27T08:05:34.980Z,0.34
2018-12-27T08:08:06.833Z,0.35
2018-12-27T08:10:38.410Z,0.30
2018-12-27T08:13:11.354Z,0.37
2018-12-27T08:15:43.001Z,0.30
2018-12-27T08:18:14.778Z,0.29
2018-12-27T08:20:46.372Z,0.19
2018-12-27T08:23:18.229Z,0.20
2018-12-27T08:25:50.140Z,0.28
2018-12-27T08:28:21.993Z,0.27
2018-12-27T08:30:53.251Z,0.29
2018-12-27T08:33:24.748Z,0.28
2018-12-27T08:35:56.086Z,0.12
2018-12-27T08:38:27.706Z,0.12
2018-12-27T08:40:59.363Z,0.33
2018-12-27T08:43:31.060Z,0.40
2018-12-27T08:46:02.150Z,0.49
2018-12-27T08:48:34.222Z,0.45
2018-12-27T08:51:05.982Z,0.36
2018-12-27T08:53:37.579Z,0.43
2018-12-27T08:56:11.143Z,0.53
2018-12-27T08:58:42.636Z,0.64
2018-12-27T09:01:40.868Z,0.81
2018-12-27T09:04:13.776Z,1.15
2018-12-27T09:06:54.318Z,1.28
2018-12-27T09:09:27.036Z,0.80
2018-12-27T09:11:58.097Z,1.04
2018-12-27T09:14:31.015Z,0.98
2018-12-27T09:17:02.900Z,1.21
2018-12-27T09:19:34.326Z,1.33
2018-12-27T09:22:05.614Z,0.94
2018-12-27T09:24:37.546Z,0.76
2018-12-27T09:27:09.190Z,0.94
2018-12-27T09:29:40.502Z,1.06
2018-12-27T09:32:11.774Z,0.96
2018-12-27T09:34:43.391Z,1.26
2018-12-27T09:37:15.012Z,1.18
2018-12-27T09:39:46.639Z,1.29
2018-12-27T09:42:18.222Z,1.39
2018-12-27T09:44:50.015Z,0.96
2018-12-27T09:47:21.614Z,0.71
2018-12-27T09:49:53.518Z,0.63
2018-12-27T09:52:25.261Z,0.69
2018-12-27T09:54:56.773Z,0.70
2018-12-27T09:57:28.102Z,0.87
2018-12-27T09:59:59.931Z,0.66
2018-12-27T10:02:31.448Z,0.64
2018-12-27T10:05:16.369Z,0.53
2018-12-27T10:07:47.879Z,0.58
2018-12-27T10:10:19.373Z,0.58
2018-12-27T10:12:53.636Z,0.66
2018-12-27T10:15:25.308Z,0.44
2018-12-27T10:17:57.146Z,0.73
2018-12-27T10:20:28.741Z,0.83
2018-12-27T10:23:00.576Z,0.80
2018-12-27T10:25:38.481Z,0.86
2018-12-27T10:28:10.108Z,0.79
2018-12-27T10:30:41.773Z,0.85
2018-12-27T10:33:12.987Z,0.85
2018-12-27T10:35:45.206Z,0.63
2018-12-27T10:38:17.071Z,0.54
2018-12-27T10:40:48.793Z,0.84
2018-12-27T10:43:19.432Z,1.15
2018-12-27T10:46:00.149Z,1.09
2018-12-27T10:48:32.011Z,1.10
2018-12-27T10:51:03.883Z,1.18
2018-12-27T10:53:35.481Z,1.18
2018-12-27T10:56:06.689Z,1.09
2018-12-27T10:58:37.964Z,1.06
2018-12-27T11:01:10.124Z,0.75
2018-12-27T11:03:44.184Z,0.82
2018-12-27T11:06:16.128Z,0.67
2018-12-27T11:08:48.489Z,0.83
2018-12-27T11:11:23.158Z,0.53
2018-12-27T11:13:54.581Z,0.95
2018-12-27T11:16:26.455Z,0.98
2018-12-27T11:18:58.143Z,0.89
2018-12-27T11:21:29.052Z,0.65
2018-12-27T11:24:13.432Z,0.83
2018-12-27T11:27:06.296Z,0.75
2018-12-27T11:29:37.807Z,0.51
2018-12-27T11:32:08.991Z,0.61
2018-12-27T11:34:40.552Z,1.05
2018-12-27T11:37:12.376Z,0.96
2018-12-27T11:39:44.335Z,0.97
2018-12-27T11:42:18.512Z,1.39
2018-12-27T11:44:49.594Z,1.50
2018-12-27T11:47:21.852Z,1.23
2018-12-27T11:49:57.074Z,1.02
2018-12-27T11:52:29.004Z,1.04
2018-12-27T11:55:02.598Z,1.19
2018-12-27T11:57:33.851Z,1.45
2018-12-27T12:00:05.494Z,1.62
2018-12-27T12:02:51.821Z,1.72
2018-12-27T12:05:24.102Z,1.48
2018-12-27T12:08:08.129Z,1.37
2018-12-27T12:10:40.046Z,1.39
2018-12-27T12:13:10.999Z,1.42
2018-12-27T12:15:42.778Z,1.52
2018-12-27T12:18:14.637Z,1.69
2018-12-27T12:20:46.325Z,1.36
2018-12-27T12:23:19.626Z,1.09
2018-12-27T12:25:51.402Z,1.16
2018-12-27T12:28:22.652Z,1.38
2018-12-27T12:30:54.048Z,1.32
2018-12-27T12:33:25.710Z,1.37
2018-12-27T12:35:57.675Z,1.64
2018-12-27T12:38:28.995Z,2.00
2018-12-27T12:41:17.183Z,2.02
2018-12-27T12:43:48.945Z,1.99
2018-12-27T12:46:20.590Z,2.20
2018-12-27T12:48:52.462Z,2.37
2018-12-27T12:51:24.052Z,1.98
2018-12-27T12:53:55.412Z,1.85
2018-12-27T12:56:33.621Z,1.93
2018-12-27T12:59:04.890Z,2.16
2018-12-27T13:01:36.455Z,2.06
2018-12-27T13:04:08.166Z,2.18
2018-12-27T13:06:40.040Z,2.02
2018-12-27T13:09:22.739Z,1.73
2018-12-27T13:11:54.240Z,2.21
2018-12-27T13:14:26.209Z,1.99
2018-12-27T13:17:03.872Z,2.20
2018-12-27T13:19:43.969Z,1.69
2018-12-27T13:22:15.592Z,1.59
2018-12-27T13:24:46.861Z,1.44
2018-12-27T13:27:18.647Z,1.83
2018-12-27T13:29:49.930Z,1.79
2018-12-27T13:32:23.539Z,1.70
2018-12-27T13:34:54.842Z,1.71
2018-12-27T13:37:26.571Z,1.23
2018-12-27T13:39:59.134Z,1.49
2018-12-27T13:42:30.495Z,1.59
2018-12-27T13:45:02.461Z,1.69
2018-12-27T13:47:34.337Z,1.71
2018-12-27T13:50:12.426Z,1.90
2018-12-27T13:52:44.321Z,1.36
2018-12-27T13:55:20.216Z,1.31
2018-12-27T13:57:55.673Z,1.49
2018-12-27T14:01:10.642Z,1.59
2018-12-27T14:04:03.779Z,1.58
2018-12-27T14:07:05.737Z,1.22
2018-12-27T14:09:53.291Z,1.25
2018-12-27T14:12:24.657Z,1.17
2018-12-27T14:14:56.466Z,1.06
2018-12-27T14:17:35.473Z,1.17
2018-12-27T14:20:09.888Z,1.42
2018-12-27T14:22:57.519Z,1.38
2018-12-27T14:25:38.750Z,1.01
2018-12-27T14:28:16.640Z,1.03
2018-12-27T14:30:59.427Z,1.03
2018-12-27T14:33:40.356Z,1.17
2018-12-27T14:36:23.248Z,1.26
2018-12-27T14:38:55.544Z,1.15
2018-12-27T14:41:52.464Z,1.17
2018-12-27T14:44:52.423Z,1.22
2018-12-27T14:47:27.082Z,1.19
2018-12-27T14:49:59.764Z,0.93
2018-12-27T14:52:31.246Z,1.02
2018-12-27T14:55:02.796Z,1.10
2018-12-27T14:57:34.216Z,1.22
2018-12-27T15:00:14.293Z,1.35
2018-12-27T15:02:46.167Z,1.17
2018-12-27T15:05:31.601Z,1.13
2018-12-27T15:08:04.163Z,1.25
2018-12-27T15:10:35.659Z,1.23
2018-12-27T15:13:07.239Z,0.94
2018-12-27T15:15:38.720Z,0.95
2018-12-27T15:18:26.356Z,0.86
2018-12-27T15:20:57.873Z,0.85
2018-12-27T15:23:29.610Z,0.95
2018-12-27T15:26:01.218Z,1.12
2018-12-27T15:28:33.233Z,1.18
2018-12-27T15:31:04.164Z,1.29
2018-12-27T15:33:35.578Z,1.24
2018-12-27T15:36:15.576Z,1.13
2018-12-27T15:38:46.811Z,1.02
2018-12-27T15:41:21.619Z,1.13
2018-12-27T15:43:53.166Z,1.13
2018-12-27T15:46:43.377Z,1.05
2018-12-27T15:49:31.823Z,1.00
2018-12-27T15:52:03.502Z,0.96
2018-12-27T15:54:35.310Z,1.00
2018-12-27T15:57:06.820Z,1.09
2018-12-27T15:59:38.575Z,1.06
2018-12-27T16:02:10.102Z,0.96
2018-12-27T16:04:54.254Z,0.94
2018-12-27T16:07:25.771Z,1.01
2018-12-27T16:09:57.041Z,0.92
2018-12-27T16:12:28.637Z,0.86
2018-12-27T16:15:00.228Z,0.79
2018-12-27T16:17:31.934Z,0.70
2018-12-27T16:20:03.580Z,0.68
2018-12-27T16:22:35.361Z,0.65
2018-12-27T16:25:07.199Z,0.63
2018-12-27T16:27:39.095Z,0.76
2018-12-27T16:30:10.058Z,0.79
2018-12-27T16:32:41.602Z,0.80
2018-12-27T16:35:13.186Z,0.76
2018-12-27T16:37:45.028Z,0.87
2018-12-27T16:40:16.560Z,0.91
2018-12-27T16:42:48.585Z,0.94
2018-12-27T16:45:19.832Z,0.90
2018-12-27T16:47:51.706Z,0.94
2018-12-27T16:50:29.693Z,0.85
2018-12-27T16:53:01.183Z,0.86
2018-12-27T16:55:33.014Z,0.81
2018-12-27T16:58:04.674Z,0.83
2018-12-27T17:00:35.980Z,0.75
2018-12-27T17:03:08.783Z,0.75
2018-12-27T17:05:40.566Z,0.76
2018-12-27T17:08:12.148Z,0.75
2018-12-27T17:10:43.438Z,0.77
2018-12-27T17:13:14.901Z,0.79
2018-12-27T17:15:46.178Z,0.79
2018-12-27T17:18:17.848Z,0.80
2018-12-27T17:20:59.244Z,0.79
2018-12-27T17:23:31.169Z,0.82
2018-12-27T17:26:02.603Z,0.87
2018-12-27T17:28:34.244Z,0.85
2018-12-27T17:31:05.844Z,0.86
2018-12-27T17:33:37.450Z,0.91
2018-12-27T17:36:08.590Z,0.88
2018-12-27T17:38:39.862Z,0.87
2018-12-27T17:41:15.927Z,0.80
2018-12-27T17:43:47.729Z,0.88
2018-12-27T17:46:19.275Z,0.91
2018-12-27T17:48:51.088Z,0.93
2018-12-27T17:51:23.114Z,0.97
2018-12-27T17:54:09.942Z,1.00
2018-12-27T17:56:42.462Z,0.97
2018-12-27T17:59:14.103Z,0.92
2018-12-27T18:01:45.668Z,0.88
2018-12-27T18:04:20.287Z,0.90
2018-12-27T18:06:54.971Z,0.88
2018-12-27T18:09:26.659Z,0.97
2018-12-27T18:11:58.882Z,1.10
2018-12-27T18:14:30.854Z,1.18
2018-12-27T18:17:02.602Z,1.11
2018-12-27T18:19:34.229Z,1.06
2018-12-27T18:22:05.525Z,1.07
2018-12-27T18:24:37.435Z,1.09
2018-12-27T18:27:08.925Z,1.05
2018-12-27T18:29:40.242Z,1.12
2018-12-27T18:32:12.110Z,1.10
2018-12-27T18:34:43.941Z,1.23
2018-12-27T18:37:14.854Z,1.32
2018-12-27T18:39:46.492Z,1.50
2018-12-27T18:42:18.154Z,1.61
2018-12-27T18:44:49.199Z,1.61
2018-12-27T18:47:20.894Z,1.26
2018-12-27T18:49:52.505Z,1.13
2018-12-27T18:52:24.548Z,1.18
2018-12-27T18:54:56.087Z,1.10
2018-12-27T18:57:27.983Z,1.24
2018-12-27T19:00:00.746Z,1.28
2018-12-27T19:02:31.912Z,1.53
2018-12-27T19:05:03.479Z,1.44
2018-12-27T19:07:35.078Z,1.17
2018-12-27T19:10:07.997Z,1.12
2018-12-27T19:13:07.962Z,0.98
2018-12-27T19:15:55.767Z,0.95
2018-12-27T19:18:39.499Z,0.90
2018-12-27T19:21:27.822Z,0.96
2018-12-27T19:23:59.664Z,0.92
2018-12-27T19:26:31.965Z,0.85
2018-12-27T19:29:06.127Z,0.86
2018-12-27T19:31:38.729Z,0.89
2018-12-27T19:34:10.456Z,1.09
2018-12-27T19:36:49.468Z,1.07
2018-12-27T19:39:21.326Z,1.08
2018-12-27T19:41:54.931Z,1.09
2018-12-27T19:44:26.176Z,1.25
2018-12-27T19:46:57.394Z,1.34
2018-12-27T19:49:28.988Z,1.29
2018-12-27T19:52:00.569Z,1.25
2018-12-27T19:54:32.275Z,1.31
2018-12-27T19:57:03.721Z,1.18
2018-12-27T19:59:35.604Z,1.16
2018-12-27T20:02:06.851Z,1.12
2018-12-27T20:04:38.627Z,1.02
2018-12-27T20:07:11.762Z,0.92
2018-12-27T20:09:43.930Z,0.87
2018-12-27T20:12:17.519Z,0.93
2018-12-27T20:14:49.044Z,0.86
2018-12-27T20:17:21.003Z,0.91
2018-12-27T20:19:52.556Z,0.92
2018-12-27T20:22:24.283Z,0.95
2018-12-27T20:24:55.649Z,1.01
2018-12-27T20:27:26.891Z,0.96
2018-12-27T20:29:58.765Z,0.94
2018-12-27T20:32:30.872Z,1.04
2018-12-27T20:35:02.119Z,0.99
2018-12-27T20:37:33.787Z,0.93
2018-12-27T20:40:06.450Z,0.93
2018-12-27T20:42:46.937Z,0.95
2018-12-27T20:45:19.044Z,1.06
2018-12-27T20:47:50.588Z,1.07
2018-12-27T20:50:22.817Z,1.10
2018-12-27T20:52:55.785Z,1.07
2018-12-27T20:55:30.223Z,1.09
2018-12-27T20:58:03.090Z,1.02
2018-12-27T21:00:47.771Z,1.08
2018-12-27T21:03:19.025Z,1.05
2018-12-27T21:05:54.078Z,1.08
2018-12-27T21:08:26.097Z,1.12
2018-12-27T21:11:09.103Z,1.13
2018-12-27T21:13:41.126Z,1.16
2018-12-27T21:16:17.677Z,1.21
2018-12-27T21:18:50.249Z,1.22
2018-12-27T21:21:23.043Z,1.21
2018-12-27T21:24:04.322Z,1.21
2018-12-27T21:26:36.045Z,1.19
2018-12-27T21:29:13.949Z,1.19
2018-12-27T21:31:45.465Z,1.28
2018-12-27T21:34:31.167Z,1.31
2018-12-27T21:37:10.439Z,1.29
2018-12-27T21:39:42.180Z,1.28
2018-12-27T21:42:14.261Z,1.36
2018-12-27T21:44:46.306Z,1.38
2018-12-27T21:47:20.343Z,1.36
2018-12-27T21:49:55.755Z,1.35
2018-12-27T21:52:40.236Z,1.33
2018-12-27T21:55:12.225Z,1.21
2018-12-27T21:57:45.059Z,1.15
2018-12-27T22:00:19.796Z,1.18
2018-12-27T22:02:55.424Z,1.29
2018-12-27T22:05:28.835Z,1.44
2018-12-27T22:08:03.976Z,1.42
2018-12-27T22:10:42.946Z,1.32
2018-12-27T22:13:15.437Z,1.32
2018-12-27T22:15:56.830Z,1.27
2018-12-27T22:18:36.156Z,1.24
2018-12-27T22:21:15.568Z,1.25
2018-12-27T22:23:47.419Z,1.33
2018-12-27T22:26:19.532Z,1.36
2018-12-27T22:28:52.776Z,1.38
2018-12-27T22:31:24.619Z,1.43
2018-12-27T22:33:57.846Z,1.46
2018-12-27T22:36:33.450Z,1.47
2018-12-27T22:39:12.880Z,1.48
2018-12-27T22:41:56.890Z,1.41
2018-12-27T22:44:32.175Z,1.43
2018-12-27T22:47:15.141Z,1.64
2018-12-27T22:49:47.828Z,1.61
2018-12-27T22:52:21.047Z,1.58
2018-12-27T22:54:56.282Z,1.60
2018-12-27T22:57:28.529Z,1.58
2018-12-27T23:00:00.514Z,1.58
2018-12-27T23:02:32.827Z,1.49
2018-12-27T23:05:16.243Z,1.44
2018-12-27T23:07:48.985Z,1.18
2018-12-27T23:10:21.974Z,1.31
2018-12-27T23:12:53.787Z,1.04
2018-12-27T23:15:25.831Z,1.02
2018-12-27T23:18:00.118Z,0.96
2018-12-27T23:20:36.736Z,0.86
2018-12-27T23:23:09.089Z,0.88
2018-12-27T23:25:43.863Z,0.93
2018-12-27T23:28:23.292Z,1.11
2018-12-27T23:30:55.508Z,1.23
2018-12-27T23:33:27.461Z,1.32
2018-12-27T23:35:59.049Z,1.35
2018-12-27T23:38:36.820Z,1.28
2018-12-27T23:41:11.686Z,1.44
2018-12-27T23:43:45.785Z,1.39
2018-12-27T23:46:17.908Z,1.34
2018-12-27T23:48:49.787Z,1.35
2018-12-27T23:51:21.051Z,1.41
2018-12-27T23:53:56.281Z,1.38
2018-12-27T23:56:27.768Z,1.42
2018-12-27T23:59:09.605Z,1.49
